PWSweather.com
Personal Weather Stations
Station Observations
SEVNO44
Sevno, PrimskovoSI 1276

SevnoPrimskovoSI 1276

Lat: 45.9796285, Lon: 14.924044999999978

Elevation: 1706.0368

Station Type: WS-2307

www.primskovo.eu/vreme

High Low Average
Temperature 64.4°F18.0°C 55.4°F13.0°C 60.0°F15.6°C
Dew Point 61.1°F16.2°C 52.5°F11.4°C 56.1°F13.4°C
Winds 4.8 mph 7.7 kmh Calm Calm 1.0 mph SE1.6 kmh SE
Wind Gusts 8.1 mph13.0 kmh -- 2.0 mph3.2 kmh
Humidity 91% 78% 87%
Pressure 30.09 in1019.0 mb 30.01 in1016.3 mb -
Precipitation 0.80 in20.3 mm - -
Hour Temp Dew Point Humidity Winds Wind Gusts Pressure Precip Precip Rate Daily Precip Total
12:00 AM 60.1°F15.6°C 53.2°F11.8°C 78% 2.5 mph N4.0 kmh N 3.6 mph5.8 kmh 30.02 in1016.6 mb 0.00 in0.0 mm 0.00 in0.0 mm 0.00 in0.0 mm
12:05 AM 59.9°F15.5°C 53.4°F11.9°C 79% 2.9 mph N4.7 kmh N 3.6 mph5.8 kmh 30.02 in1016.6 mb 0.00 in0.0 mm 0.00 in0.0 mm 0.00 in0.0 mm
12:10 AM 59.9°F15.5°C 53.4°F11.9°C 79% 3.5 mph NNE5.6 kmh NNE 5.6 mph9.0 kmh 30.02 in1016.6 mb 0.00 in0.0 mm 0.00 in0.0 mm 0.00 in0.0 mm
12:15 AM 59.7°F15.4°C 53.2°F11.8°C 79% 3.6 mph NNE5.8 kmh NNE 5.6 mph9.0 kmh 30.02 in1016.6 mb 0.00 in0.0 mm 0.00 in0.0 mm 0.00 in0.0 mm
12:20 AM 59.7°F15.4°C 53.2°F11.8°C 79% 3.1 mph N5.0 kmh N 3.6 mph5.8 kmh 30.02 in1016.6 mb 0.00 in0.0 mm 0.00 in0.0 mm 0.00 in0.0 mm
12:25 AM 59.7°F15.4°C 53.2°F11.8°C 79% 3.5 mph N5.6 kmh N 4.7 mph7.6 kmh 30.02 in1016.6 mb 0.00 in0.0 mm 0.00 in0.0 mm 0.00 in0.0 mm
12:30 AM 59.7°F15.4°C 53.5°F11.9°C 80% 2.9 mph N4.7 kmh N 4.7 mph7.6 kmh 30.02 in1016.6 mb 0.00 in0.0 mm 0.00 in0.0 mm 0.00 in0.0 mm
12:35 AM 59.5°F15.3°C 53.4°F11.9°C 80% 1.6 mph N2.6 kmh N 3.4 mph5.5 kmh 30.02 in1016.6 mb 0.00 in0.0 mm 0.00 in0.0 mm 0.00 in0.0 mm
12:40 AM 59.5°F15.3°C 53.4°F11.9°C 80% 1.8 mph NNW2.9 kmh NNW 2.9 mph4.7 kmh 30.03 in1016.9 mb 0.00 in0.0 mm 0.00 in0.0 mm 0.00 in0.0 mm
12:45 AM 59.4°F15.2°C 53.2°F11.8°C 80% 2.6 mph NNW4.2 kmh NNW 2.9 mph4.7 kmh 30.03 in1016.9 mb 0.00 in0.0 mm 0.00 in0.0 mm 0.00 in0.0 mm
12:50 AM 59.4°F15.2°C 53.2°F11.8°C 80% 2.0 mph NNW3.2 kmh NNW 2.9 mph4.7 kmh 30.03 in1016.9 mb 0.00 in0.0 mm 0.00 in0.0 mm 0.00 in0.0 mm
12:55 AM 59.4°F15.2°C 53.2°F11.8°C 80% 1.4 mph N2.3 kmh N 3.6 mph5.8 kmh 30.03 in1016.9 mb 0.00 in0.0 mm 0.00 in0.0 mm 0.00 in0.0 mm
01:00 AM 59.2°F15.1°C 53.0°F11.7°C 80% 1.4 mph N2.3 kmh N 3.6 mph5.8 kmh 30.03 in1016.9 mb 0.00 in0.0 mm 0.00 in0.0 mm 0.00 in0.0 mm
01:05 AM 59.2°F15.1°C 53.0°F11.7°C 80% 1.7 mph NNW2.7 kmh NNW 3.6 mph5.8 kmh 30.03 in1016.9 mb 0.00 in0.0 mm 0.00 in0.0 mm 0.00 in0.0 mm
01:10 AM 59.2°F15.1°C 53.0°F11.7°C 80% 1.6 mph NNW2.6 kmh NNW 3.4 mph5.5 kmh 30.02 in1016.6 mb 0.00 in0.0 mm 0.00 in0.0 mm 0.00 in0.0 mm
01:15 AM 59.2°F15.1°C 53.0°F11.7°C 80% 1.7 mph N2.7 kmh N 3.1 mph5.0 kmh 30.02 in1016.6 mb 0.00 in0.0 mm 0.00 in0.0 mm 0.00 in0.0 mm
01:20 AM 59.2°F15.1°C 53.0°F11.7°C 80% 2.2 mph N3.5 kmh N 3.8 mph6.1 kmh 30.02 in1016.6 mb 0.00 in0.0 mm 0.00 in0.0 mm 0.00 in0.0 mm
01:25 AM 59.2°F15.1°C 53.0°F11.7°C 80% 1.9 mph N3.1 kmh N 3.8 mph6.1 kmh 30.02 in1016.6 mb 0.00 in0.0 mm 0.00 in0.0 mm 0.00 in0.0 mm
01:30 AM 59.2°F15.1°C 53.4°F11.9°C 81% 2.6 mph NNW4.2 kmh NNW 3.6 mph5.8 kmh 30.02 in1016.6 mb 0.00 in0.0 mm 0.00 in0.0 mm 0.00 in0.0 mm
01:35 AM 59.2°F15.1°C 53.4°F11.9°C 81% 2.3 mph NNW3.7 kmh NNW 3.6 mph5.8 kmh 30.02 in1016.6 mb 0.00 in0.0 mm 0.00 in0.0 mm 0.00 in0.0 mm
01:40 AM 59.2°F15.1°C 53.4°F11.9°C 81% 2.0 mph N3.2 kmh N 4.3 mph6.9 kmh 30.02 in1016.6 mb 0.00 in0.0 mm 0.00 in0.0 mm 0.00 in0.0 mm
01:45 AM 59.2°F15.1°C 53.4°F11.9°C 81% 2.8 mph N4.5 kmh N 4.3 mph6.9 kmh 30.02 in1016.6 mb 0.00 in0.0 mm 0.00 in0.0 mm 0.00 in0.0 mm
01:50 AM 59.2°F15.1°C 53.4°F11.9°C 81% 2.7 mph NNE4.3 kmh NNE 4.3 mph6.9 kmh 30.02 in1016.6 mb 0.00 in0.0 mm 0.00 in0.0 mm 0.00 in0.0 mm
01:55 AM 59.2°F15.1°C 53.4°F11.9°C 81% 2.2 mph N3.5 kmh N 3.1 mph5.0 kmh 30.02 in1016.6 mb 0.00 in0.0 mm 0.00 in0.0 mm 0.00 in0.0 mm
02:00 AM 59.2°F15.1°C 53.4°F11.9°C 81% 2.0 mph NNW3.2 kmh NNW 2.0 mph3.2 kmh 30.02 in1016.6 mb 0.00 in0.0 mm 0.00 in0.0 mm 0.00 in0.0 mm
02:05 AM 59.2°F15.1°C 53.4°F11.9°C 81% 2.9 mph N4.7 kmh N 3.8 mph6.1 kmh 30.02 in1016.6 mb 0.00 in0.0 mm 0.00 in0.0 mm 0.00 in0.0 mm
02:10 AM 59.2°F15.1°C 53.4°F11.9°C 81% 1.3 mph N2.1 kmh N 3.8 mph6.1 kmh 30.02 in1016.6 mb 0.00 in0.0 mm 0.00 in0.0 mm 0.00 in0.0 mm
02:15 AM 59.2°F15.1°C 53.4°F11.9°C 81% 1.4 mph NNE2.3 kmh NNE 3.8 mph6.1 kmh 30.02 in1016.6 mb 0.00 in0.0 mm 0.00 in0.0 mm 0.00 in0.0 mm
02:20 AM 59.2°F15.1°C 53.7°F12.1°C 82% 1.7 mph N2.7 kmh N 2.2 mph3.5 kmh 30.02 in1016.6 mb 0.00 in0.0 mm 0.00 in0.0 mm 0.00 in0.0 mm
02:25 AM 59.2°F15.1°C 53.7°F12.1°C 82% 0.9 mph NW1.4 kmh NW 2.2 mph3.5 kmh 30.02 in1016.6 mb 0.00 in0.0 mm 0.00 in0.0 mm 0.00 in0.0 mm
02:30 AM 59.2°F15.1°C 53.7°F12.1°C 82% 1.8 mph NW2.9 kmh NW 2.9 mph4.7 kmh 30.02 in1016.6 mb 0.00 in0.0 mm 0.00 in0.0 mm 0.00 in0.0 mm
02:35 AM 59.4°F15.2°C 53.9°F12.2°C 82% 2.8 mph NW4.5 kmh NW 2.9 mph4.7 kmh 30.02 in1016.6 mb 0.00 in0.0 mm 0.00 in0.0 mm 0.00 in0.0 mm
02:40 AM 59.5°F15.3°C 54.0°F12.2°C 82% 2.5 mph NW4.0 kmh NW 2.9 mph4.7 kmh 30.01 in1016.3 mb 0.00 in0.0 mm 0.00 in0.0 mm 0.00 in0.0 mm
02:45 AM 59.5°F15.3°C 54.0°F12.2°C 82% 2.2 mph NNW3.5 kmh NNW 3.6 mph5.8 kmh 30.02 in1016.6 mb 0.00 in0.0 mm 0.00 in0.0 mm 0.00 in0.0 mm
02:50 AM 59.7°F15.4°C 54.2°F12.3°C 82% 2.4 mph NW3.9 kmh NW 3.6 mph5.8 kmh 30.01 in1016.3 mb 0.00 in0.0 mm 0.00 in0.0 mm 0.00 in0.0 mm
02:55 AM 59.7°F15.4°C 54.2°F12.3°C 82% 2.7 mph WNW4.3 kmh WNW 3.1 mph5.0 kmh 30.01 in1016.3 mb 0.00 in0.0 mm 0.00 in0.0 mm 0.00 in0.0 mm
03:00 AM 59.7°F15.4°C 54.2°F12.3°C 82% 2.8 mph WNW4.5 kmh WNW 3.8 mph6.1 kmh 30.02 in1016.6 mb 0.00 in0.0 mm 0.00 in0.0 mm 0.00 in0.0 mm
03:05 AM 59.9°F15.5°C 54.4°F12.4°C 82% 3.3 mph NW5.3 kmh NW 3.8 mph6.1 kmh 30.01 in1016.3 mb 0.00 in0.0 mm 0.00 in0.0 mm 0.00 in0.0 mm
03:10 AM 60.1°F15.6°C 54.6°F12.6°C 82% 3.3 mph NW5.3 kmh NW 3.8 mph6.1 kmh 30.01 in1016.3 mb 0.00 in0.0 mm 0.00 in0.0 mm 0.00 in0.0 mm
03:15 AM 60.1°F15.6°C 54.6°F12.6°C 82% 2.5 mph NW4.0 kmh NW 3.6 mph5.8 kmh 30.02 in1016.6 mb 0.00 in0.0 mm 0.00 in0.0 mm 0.00 in0.0 mm
03:20 AM 60.1°F15.6°C 54.6°F12.6°C 82% 2.8 mph NW4.5 kmh NW 3.4 mph5.5 kmh 30.02 in1016.6 mb 0.00 in0.0 mm 0.00 in0.0 mm 0.00 in0.0 mm
03:25 AM 60.1°F15.6°C 54.6°F12.6°C 82% 3.0 mph WNW4.8 kmh WNW 3.4 mph5.5 kmh 30.02 in1016.6 mb 0.00 in0.0 mm 0.00 in0.0 mm 0.00 in0.0 mm
03:30 AM 60.3°F15.7°C 54.7°F12.6°C 82% 3.5 mph WNW5.6 kmh WNW 4.3 mph6.9 kmh 30.02 in1016.6 mb 0.00 in0.0 mm 0.00 in0.0 mm 0.00 in0.0 mm
03:35 AM 60.3°F15.7°C 54.7°F12.6°C 82% 3.1 mph WNW5.0 kmh WNW 4.3 mph6.9 kmh 30.02 in1016.6 mb 0.00 in0.0 mm 0.00 in0.0 mm 0.00 in0.0 mm
03:40 AM 60.4°F15.8°C 54.9°F12.7°C 82% 2.5 mph NW4.0 kmh NW 4.3 mph6.9 kmh 30.02 in1016.6 mb 0.00 in0.0 mm 0.00 in0.0 mm 0.00 in0.0 mm
03:45 AM 60.4°F15.8°C 54.9°F12.7°C 82% 2.1 mph NW3.4 kmh NW 3.6 mph5.8 kmh 30.01 in1016.3 mb 0.00 in0.0 mm 0.00 in0.0 mm 0.00 in0.0 mm
03:50 AM 60.4°F15.8°C 54.9°F12.7°C 82% 1.3 mph NW2.1 kmh NW 1.6 mph2.6 kmh 30.01 in1016.3 mb 0.00 in0.0 mm 0.00 in0.0 mm 0.00 in0.0 mm
03:55 AM 60.4°F15.8°C 54.9°F12.7°C 82% 1.2 mph NW1.9 kmh NW 2.0 mph3.2 kmh 30.01 in1016.3 mb 0.00 in0.0 mm 0.00 in0.0 mm 0.00 in0.0 mm
04:00 AM 60.4°F15.8°C 54.9°F12.7°C 82% 1.1 mph NNW1.8 kmh NNW 2.0 mph3.2 kmh 30.01 in1016.3 mb 0.00 in0.0 mm 0.00 in0.0 mm 0.00 in0.0 mm
04:05 AM 60.4°F15.8°C 54.9°F12.7°C 82% 1.9 mph NNW3.1 kmh NNW 3.1 mph5.0 kmh 30.01 in1016.3 mb 0.00 in0.0 mm 0.00 in0.0 mm 0.00 in0.0 mm
04:10 AM 60.4°F15.8°C 54.9°F12.7°C 82% 2.8 mph NNW4.5 kmh NNW 3.1 mph5.0 kmh 30.01 in1016.3 mb 0.00 in0.0 mm 0.00 in0.0 mm 0.00 in0.0 mm
04:15 AM 60.4°F15.8°C 54.9°F12.7°C 82% 2.8 mph NNW4.5 kmh NNW 2.9 mph4.7 kmh 30.01 in1016.3 mb 0.00 in0.0 mm 0.00 in0.0 mm 0.00 in0.0 mm
04:20 AM 60.4°F15.8°C 54.9°F12.7°C 82% 2.7 mph NNW4.3 kmh NNW 3.4 mph5.5 kmh 30.01 in1016.3 mb 0.00 in0.0 mm 0.00 in0.0 mm 0.00 in0.0 mm
04:25 AM 60.4°F15.8°C 54.9°F12.7°C 82% 2.9 mph N4.7 kmh N 3.6 mph5.8 kmh 30.01 in1016.3 mb 0.00 in0.0 mm 0.00 in0.0 mm 0.00 in0.0 mm
04:30 AM 60.4°F15.8°C 55.3°F12.9°C 83% 3.3 mph NNW5.3 kmh NNW 5.4 mph8.7 kmh 30.01 in1016.3 mb 0.00 in0.0 mm 0.00 in0.0 mm 0.00 in0.0 mm
04:35 AM 60.4°F15.8°C 55.3°F12.9°C 83% 2.3 mph NW3.7 kmh NW 5.4 mph8.7 kmh 30.01 in1016.3 mb 0.00 in0.0 mm 0.00 in0.0 mm 0.00 in0.0 mm
04:40 AM 60.4°F15.8°C 55.3°F12.9°C 83% 2.0 mph NW3.2 kmh NW 3.1 mph5.0 kmh 30.01 in1016.3 mb 0.00 in0.0 mm 0.00 in0.0 mm 0.00 in0.0 mm
04:45 AM 60.4°F15.8°C 55.3°F12.9°C 83% 2.5 mph NW4.0 kmh NW 3.1 mph5.0 kmh 30.01 in1016.3 mb 0.00 in0.0 mm 0.00 in0.0 mm 0.00 in0.0 mm
04:50 AM 60.4°F15.8°C 55.3°F12.9°C 83% 1.7 mph NW2.7 kmh NW 2.2 mph3.5 kmh 30.01 in1016.3 mb 0.00 in0.0 mm 0.00 in0.0 mm 0.00 in0.0 mm
04:55 AM 60.3°F15.7°C 55.1°F12.8°C 83% 1.0 mph NNW1.6 kmh NNW 2.2 mph3.5 kmh 30.01 in1016.3 mb 0.00 in0.0 mm 0.00 in0.0 mm 0.00 in0.0 mm
05:00 AM 60.3°F15.7°C 55.1°F12.8°C 83% 1.2 mph N1.9 kmh N 2.0 mph3.2 kmh 30.01 in1016.3 mb 0.00 in0.0 mm 0.00 in0.0 mm 0.00 in0.0 mm
05:05 AM 60.3°F15.7°C 55.1°F12.8°C 83% 1.8 mph N2.9 kmh N 2.0 mph3.2 kmh 30.01 in1016.3 mb 0.00 in0.0 mm 0.00 in0.0 mm 0.00 in0.0 mm
05:10 AM 60.1°F15.6°C 54.9°F12.7°C 83% 1.9 mph NNE3.1 kmh NNE 2.0 mph3.2 kmh 30.01 in1016.3 mb 0.00 in0.0 mm 0.00 in0.0 mm 0.00 in0.0 mm
05:15 AM 60.1°F15.6°C 55.2°F12.9°C 84% 1.7 mph N2.7 kmh N 2.0 mph3.2 kmh 30.01 in1016.3 mb 0.00 in0.0 mm 0.00 in0.0 mm 0.00 in0.0 mm
05:20 AM 60.1°F15.6°C 55.2°F12.9°C 84% 1.6 mph NW2.6 kmh NW 2.5 mph4.0 kmh 30.01 in1016.3 mb 0.00 in0.0 mm 0.00 in0.0 mm 0.00 in0.0 mm
05:25 AM 60.1°F15.6°C 55.2°F12.9°C 84% 2.4 mph NNW3.9 kmh NNW 3.8 mph6.1 kmh 30.01 in1016.3 mb 0.00 in0.0 mm 0.00 in0.0 mm 0.00 in0.0 mm
05:30 AM 60.1°F15.6°C 55.2°F12.9°C 84% 2.9 mph N4.7 kmh N 3.8 mph6.1 kmh 30.01 in1016.3 mb 0.00 in0.0 mm 0.00 in0.0 mm 0.00 in0.0 mm
05:35 AM 59.9°F15.5°C 55.1°F12.8°C 84% 1.7 mph N2.7 kmh N 3.8 mph6.1 kmh 30.01 in1016.3 mb 0.00 in0.0 mm 0.00 in0.0 mm 0.00 in0.0 mm
05:40 AM 59.9°F15.5°C 55.1°F12.8°C 84% 0.7 mph W1.1 kmh W 2.2 mph3.5 kmh 30.01 in1016.3 mb 0.00 in0.0 mm 0.00 in0.0 mm 0.00 in0.0 mm
05:45 AM 59.7°F15.4°C 54.9°F12.7°C 84% 1.2 mph W1.9 kmh W 2.5 mph4.0 kmh 30.01 in1016.3 mb 0.00 in0.0 mm 0.00 in0.0 mm 0.00 in0.0 mm
05:50 AM 59.7°F15.4°C 54.9°F12.7°C 84% 0.7 mph WNW1.1 kmh WNW 2.5 mph4.0 kmh 30.02 in1016.6 mb 0.00 in0.0 mm 0.00 in0.0 mm 0.00 in0.0 mm
05:55 AM 59.7°F15.4°C 54.9°F12.7°C 84% 0.9 mph WNW1.4 kmh WNW 4.0 mph6.4 kmh 30.02 in1016.6 mb 0.00 in0.0 mm 0.00 in0.0 mm 0.00 in0.0 mm
06:00 AM 59.7°F15.4°C 54.9°F12.7°C 84% 1.2 mph NW1.9 kmh NW 4.0 mph6.4 kmh 30.01 in1016.3 mb 0.00 in0.0 mm 0.00 in0.0 mm 0.00 in0.0 mm
06:05 AM 59.7°F15.4°C 54.9°F12.7°C 84% 1.0 mph NNE1.6 kmh NNE 2.0 mph3.2 kmh 30.02 in1016.6 mb 0.00 in0.0 mm 0.00 in0.0 mm 0.00 in0.0 mm
06:10 AM 59.7°F15.4°C 54.9°F12.7°C 84% 1.2 mph N1.9 kmh N 2.0 mph3.2 kmh 30.01 in1016.3 mb 0.00 in0.0 mm 0.00 in0.0 mm 0.00 in0.0 mm
06:15 AM 59.7°F15.4°C 54.9°F12.7°C 84% 1.1 mph NNW1.8 kmh NNW 2.0 mph3.2 kmh 30.02 in1016.6 mb 0.00 in0.0 mm 0.00 in0.0 mm 0.00 in0.0 mm
06:20 AM 59.7°F15.4°C 54.9°F12.7°C 84% 1.2 mph NNW1.9 kmh NNW 1.3 mph2.1 kmh 30.02 in1016.6 mb 0.00 in0.0 mm 0.00 in0.0 mm 0.00 in0.0 mm
06:25 AM 60.1°F15.6°C 55.2°F12.9°C 84% 1.5 mph N2.4 kmh N 2.9 mph4.7 kmh 30.02 in1016.6 mb 0.00 in0.0 mm 0.00 in0.0 mm 0.00 in0.0 mm
06:30 AM 60.1°F15.6°C 55.2°F12.9°C 84% 2.0 mph NNW3.2 kmh NNW 2.9 mph4.7 kmh 30.02 in1016.6 mb 0.00 in0.0 mm 0.00 in0.0 mm 0.00 in0.0 mm
06:35 AM 60.3°F15.7°C 55.4°F13.0°C 84% 1.6 mph NNW2.6 kmh NNW 2.9 mph4.7 kmh 30.02 in1016.6 mb 0.00 in0.0 mm 0.00 in0.0 mm 0.00 in0.0 mm
06:40 AM 60.4°F15.8°C 55.6°F13.1°C 84% 1.4 mph N2.3 kmh N 2.5 mph4.0 kmh 30.02 in1016.6 mb 0.00 in0.0 mm 0.00 in0.0 mm 0.00 in0.0 mm
06:45 AM 60.4°F15.8°C 55.6°F13.1°C 84% 2.1 mph N3.4 kmh N 2.5 mph4.0 kmh 30.02 in1016.6 mb 0.00 in0.0 mm 0.00 in0.0 mm 0.00 in0.0 mm
06:50 AM 60.4°F15.8°C 55.6°F13.1°C 84% 2.3 mph NNE3.7 kmh NNE 2.5 mph4.0 kmh 30.01 in1016.3 mb 0.00 in0.0 mm 0.00 in0.0 mm 0.00 in0.0 mm
06:55 AM 60.6°F15.9°C 55.8°F13.2°C 84% 1.4 mph NNE2.3 kmh NNE 2.5 mph4.0 kmh 30.01 in1016.3 mb 0.00 in0.0 mm 0.00 in0.0 mm 0.00 in0.0 mm
07:00 AM 60.8°F16.0°C 55.9°F13.3°C 84% 0.6 mph N1.0 kmh N 2.5 mph4.0 kmh 30.01 in1016.3 mb 0.00 in0.0 mm 0.00 in0.0 mm 0.00 in0.0 mm
07:05 AM 60.8°F16.0°C 55.9°F13.3°C 84% 0.4 mph N0.6 kmh N 1.6 mph2.6 kmh 30.02 in1016.6 mb 0.00 in0.0 mm 0.00 in0.0 mm 0.00 in0.0 mm
07:10 AM 61.0°F16.1°C 56.1°F13.4°C 84% 0.3 mph NW0.5 kmh NW 1.3 mph2.1 kmh 30.02 in1016.6 mb 0.00 in0.0 mm 0.00 in0.0 mm 0.00 in0.0 mm
07:15 AM 61.0°F16.1°C 56.1°F13.4°C 84% 0.8 mph WSW1.3 kmh WSW 1.3 mph2.1 kmh 30.02 in1016.6 mb 0.00 in0.0 mm 0.00 in0.0 mm 0.00 in0.0 mm
07:20 AM 60.8°F16.0°C 55.9°F13.3°C 84% 0.5 mph SW0.8 kmh SW 1.3 mph2.1 kmh 30.02 in1016.6 mb 0.00 in0.0 mm 0.00 in0.0 mm 0.00 in0.0 mm
07:25 AM 60.6°F15.9°C 55.8°F13.2°C 84% Calm Calm -- 30.02 in1016.6 mb 0.00 in0.0 mm 0.00 in0.0 mm 0.00 in0.0 mm
07:30 AM 60.6°F15.9°C 55.8°F13.2°C 84% Calm Calm -- 30.03 in1016.9 mb 0.00 in0.0 mm 0.00 in0.0 mm 0.00 in0.0 mm
07:35 AM 60.4°F15.8°C 55.6°F13.1°C 84% Calm Calm -- 30.03 in1016.9 mb 0.00 in0.0 mm 0.00 in0.0 mm 0.00 in0.0 mm
07:40 AM 60.1°F15.6°C 55.2°F12.9°C 84% Calm Calm -- 30.02 in1016.6 mb 0.00 in0.0 mm 0.00 in0.0 mm 0.00 in0.0 mm
07:45 AM 60.1°F15.6°C 55.2°F12.9°C 84% Calm Calm -- 30.02 in1016.6 mb 0.00 in0.0 mm 0.00 in0.0 mm 0.00 in0.0 mm
07:50 AM 60.1°F15.6°C 55.2°F12.9°C 84% 0.2 mph S0.3 kmh S 1.1 mph1.8 kmh 30.03 in1016.9 mb 0.00 in0.0 mm 0.00 in0.0 mm 0.00 in0.0 mm
07:55 AM 60.1°F15.6°C 55.2°F12.9°C 84% 0.2 mph S0.3 kmh S 1.1 mph1.8 kmh 30.03 in1016.9 mb 0.00 in0.0 mm 0.00 in0.0 mm 0.00 in0.0 mm
08:00 AM 60.1°F15.6°C 55.2°F12.9°C 84% Calm Calm -- 30.03 in1016.9 mb 0.00 in0.0 mm 0.00 in0.0 mm 0.00 in0.0 mm
08:05 AM 60.1°F15.6°C 55.2°F12.9°C 84% Calm Calm -- 30.04 in1017.3 mb 0.00 in0.0 mm 0.00 in0.0 mm 0.00 in0.0 mm
08:10 AM 59.7°F15.4°C 54.9°F12.7°C 84% 0.1 mph SSE0.2 kmh SSE 1.1 mph1.8 kmh 30.04 in1017.3 mb 0.00 in0.0 mm 0.00 in0.0 mm 0.00 in0.0 mm
08:15 AM 59.9°F15.5°C 55.4°F13.0°C 85% 0.2 mph SSE0.3 kmh SSE 1.1 mph1.8 kmh 30.04 in1017.3 mb 0.00 in0.0 mm 0.00 in0.0 mm 0.00 in0.0 mm
08:20 AM 59.7°F15.4°C 55.2°F12.9°C 85% 0.2 mph SSE0.3 kmh SSE 1.1 mph1.8 kmh 30.04 in1017.3 mb 0.00 in0.0 mm 0.00 in0.0 mm 0.00 in0.0 mm
08:25 AM 59.9°F15.5°C 55.4°F13.0°C 85% Calm Calm -- 30.04 in1017.3 mb 0.00 in0.0 mm 0.00 in0.0 mm 0.00 in0.0 mm
08:30 AM 59.9°F15.5°C 55.4°F13.0°C 85% Calm Calm -- 30.04 in1017.3 mb 0.00 in0.0 mm 0.00 in0.0 mm 0.00 in0.0 mm
08:35 AM 59.9°F15.5°C 55.4°F13.0°C 85% Calm Calm -- 30.04 in1017.3 mb 0.00 in0.0 mm 0.00 in0.0 mm 0.00 in0.0 mm
08:40 AM 60.1°F15.6°C 55.6°F13.1°C 85% Calm Calm -- 30.04 in1017.3 mb 0.00 in0.0 mm 0.00 in0.0 mm 0.00 in0.0 mm
08:45 AM 60.1°F15.6°C 55.6°F13.1°C 85% Calm Calm -- 30.05 in1017.6 mb 0.00 in0.0 mm 0.00 in0.0 mm 0.00 in0.0 mm
08:50 AM 60.1°F15.6°C 55.9°F13.3°C 86% Calm Calm -- 30.05 in1017.6 mb 0.00 in0.0 mm 0.00 in0.0 mm 0.00 in0.0 mm
08:55 AM 60.1°F15.6°C 55.9°F13.3°C 86% Calm Calm -- 30.04 in1017.3 mb 0.00 in0.0 mm 0.00 in0.0 mm 0.00 in0.0 mm
09:00 AM 60.1°F15.6°C 55.9°F13.3°C 86% Calm Calm -- 30.04 in1017.3 mb 0.08 in2.0 mm 0.09 in2.3 mm 0.08 in2.0 mm
09:05 AM 60.1°F15.6°C 55.9°F13.3°C 86% Calm Calm -- 30.05 in1017.6 mb 0.10 in2.5 mm 0.24 in6.1 mm 0.10 in2.5 mm
09:10 AM 60.1°F15.6°C 55.9°F13.3°C 86% Calm Calm -- 30.04 in1017.3 mb 0.12 in3.0 mm 0.24 in6.1 mm 0.12 in3.0 mm
09:15 AM 60.1°F15.6°C 55.9°F13.3°C 86% Calm Calm -- 30.04 in1017.3 mb 0.12 in3.0 mm 0.00 in0.0 mm 0.12 in3.0 mm
09:20 AM 59.9°F15.5°C 55.7°F13.2°C 86% Calm Calm -- 30.04 in1017.3 mb 0.14 in3.6 mm 0.24 in6.1 mm 0.14 in3.6 mm
09:25 AM 59.9°F15.5°C 55.7°F13.2°C 86% Calm Calm -- 30.04 in1017.3 mb 0.14 in3.6 mm 0.00 in0.0 mm 0.14 in3.6 mm
09:30 AM 60.1°F15.6°C 55.9°F13.3°C 86% Calm Calm -- 30.04 in1017.3 mb 0.14 in3.6 mm 0.00 in0.0 mm 0.14 in3.6 mm
09:35 AM 60.1°F15.6°C 56.2°F13.4°C 87% Calm Calm -- 30.04 in1017.3 mb 0.14 in3.6 mm 0.00 in0.0 mm 0.14 in3.6 mm
09:40 AM 60.4°F15.8°C 56.6°F13.7°C 87% 0.2 mph N0.3 kmh N 0.9 mph1.4 kmh 30.04 in1017.3 mb 0.16 in4.1 mm 0.24 in6.1 mm 0.16 in4.1 mm
09:45 AM 60.6°F15.9°C 56.7°F13.7°C 87% 0.2 mph N0.3 kmh N 0.9 mph1.4 kmh 30.04 in1017.3 mb 0.16 in4.1 mm 0.00 in0.0 mm 0.16 in4.1 mm
09:50 AM 61.2°F16.2°C 57.6°F14.2°C 88% 0.5 mph S0.8 kmh S 2.5 mph4.0 kmh 30.04 in1017.3 mb 0.16 in4.1 mm 0.00 in0.0 mm 0.16 in4.1 mm
09:55 AM 61.5°F16.4°C 57.9°F14.4°C 88% 0.5 mph S0.8 kmh S 2.5 mph4.0 kmh 30.05 in1017.6 mb 0.16 in4.1 mm 0.00 in0.0 mm 0.16 in4.1 mm
10:00 AM 61.5°F16.4°C 57.9°F14.4°C 88% 0.5 mph SSW0.8 kmh SSW 1.3 mph2.1 kmh 30.04 in1017.3 mb 0.06 in1.5 mm 0.00 in0.0 mm 0.16 in4.1 mm
10:05 AM 61.9°F16.6°C 58.3°F14.6°C 88% 0.6 mph SSW1.0 kmh SSW 1.3 mph2.1 kmh 30.05 in1017.6 mb 0.06 in1.5 mm 0.00 in0.0 mm 0.16 in4.1 mm
10:10 AM 61.7°F16.5°C 58.1°F14.5°C 88% 0.3 mph S0.5 kmh S 2.7 mph4.3 kmh 30.05 in1017.6 mb 0.04 in1.0 mm 0.00 in0.0 mm 0.16 in4.1 mm
10:15 AM 61.9°F16.6°C 58.3°F14.6°C 88% 1.1 mph SSE1.8 kmh SSE 2.7 mph4.3 kmh 30.04 in1017.3 mb 0.04 in1.0 mm 0.00 in0.0 mm 0.16 in4.1 mm
10:20 AM 61.9°F16.6°C 58.3°F14.6°C 88% 1.0 mph SSE1.6 kmh SSE 2.7 mph4.3 kmh 30.05 in1017.6 mb 0.02 in0.5 mm 0.00 in0.0 mm 0.16 in4.1 mm
10:25 AM 61.9°F16.6°C 58.3°F14.6°C 88% Calm Calm -- 30.04 in1017.3 mb 0.02 in0.5 mm 0.00 in0.0 mm 0.16 in4.1 mm
10:30 AM 61.9°F16.6°C 58.3°F14.6°C 88% Calm Calm -- 30.04 in1017.3 mb 0.02 in0.5 mm 0.00 in0.0 mm 0.16 in4.1 mm
10:35 AM 62.2°F16.8°C 58.6°F14.8°C 88% Calm Calm -- 30.04 in1017.3 mb 0.02 in0.5 mm 0.00 in0.0 mm 0.16 in4.1 mm
10:40 AM 62.4°F16.9°C 58.8°F14.9°C 88% Calm Calm -- 30.05 in1017.6 mb 0.00 in0.0 mm 0.00 in0.0 mm 0.16 in4.1 mm
10:45 AM 62.4°F16.9°C 58.8°F14.9°C 88% Calm Calm -- 30.04 in1017.3 mb 0.00 in0.0 mm 0.00 in0.0 mm 0.16 in4.1 mm
10:50 AM 62.6°F17.0°C 59.3°F15.2°C 89% Calm Calm 0.9 mph1.4 kmh 30.05 in1017.6 mb 0.00 in0.0 mm 0.00 in0.0 mm 0.16 in4.1 mm
10:55 AM 62.8°F17.1°C 59.5°F15.3°C 89% 0.2 mph SSW0.3 kmh SSW 0.9 mph1.4 kmh 30.05 in1017.6 mb 0.00 in0.0 mm 0.00 in0.0 mm 0.16 in4.1 mm
11:00 AM 62.8°F17.1°C 59.5°F15.3°C 89% 0.2 mph SSW0.3 kmh SSW 0.9 mph1.4 kmh 30.05 in1017.6 mb 0.00 in0.0 mm 0.00 in0.0 mm 0.16 in4.1 mm
11:05 AM 63.0°F17.2°C 59.3°F15.2°C 88% Calm Calm -- 30.05 in1017.6 mb 0.00 in0.0 mm 0.00 in0.0 mm 0.16 in4.1 mm
11:10 AM 63.1°F17.3°C 59.5°F15.3°C 88% 0.2 mph SW0.3 kmh SW 0.7 mph1.1 kmh 30.05 in1017.6 mb 0.00 in0.0 mm 0.00 in0.0 mm 0.16 in4.1 mm
11:15 AM 63.3°F17.4°C 60.0°F15.6°C 89% 0.3 mph SW0.5 kmh SW 0.7 mph1.1 kmh 30.05 in1017.6 mb 0.00 in0.0 mm 0.00 in0.0 mm 0.16 in4.1 mm
11:20 AM 63.3°F17.4°C 59.7°F15.4°C 88% 0.1 mph SW0.2 kmh SW 0.7 mph1.1 kmh 30.05 in1017.6 mb 0.00 in0.0 mm 0.00 in0.0 mm 0.16 in4.1 mm
11:25 AM 63.3°F17.4°C 59.7°F15.4°C 88% Calm Calm -- 30.04 in1017.3 mb 0.00 in0.0 mm 0.00 in0.0 mm 0.16 in4.1 mm
11:30 AM 63.3°F17.4°C 59.7°F15.4°C 88% 0.1 mph S0.2 kmh S 0.9 mph1.4 kmh 30.04 in1017.3 mb 0.00 in0.0 mm 0.00 in0.0 mm 0.16 in4.1 mm
11:35 AM 63.3°F17.4°C 60.0°F15.6°C 89% 0.4 mph S0.6 kmh S 0.9 mph1.4 kmh 30.05 in1017.6 mb 0.00 in0.0 mm 0.00 in0.0 mm 0.16 in4.1 mm
11:40 AM 63.3°F17.4°C 60.0°F15.6°C 89% 0.3 mph S0.5 kmh S 0.9 mph1.4 kmh 30.05 in1017.6 mb 0.00 in0.0 mm 0.00 in0.0 mm 0.16 in4.1 mm
11:45 AM 63.5°F17.5°C 60.2°F15.7°C 89% Calm Calm -- 30.05 in1017.6 mb 0.00 in0.0 mm 0.00 in0.0 mm 0.16 in4.1 mm
11:50 AM 63.5°F17.5°C 60.2°F15.7°C 89% Calm Calm -- 30.05 in1017.6 mb 0.00 in0.0 mm 0.00 in0.0 mm 0.16 in4.1 mm
11:55 AM 63.5°F17.5°C 60.2°F15.7°C 89% Calm Calm -- 30.05 in1017.6 mb 0.00 in0.0 mm 0.00 in0.0 mm 0.16 in4.1 mm
12:00 PM 63.5°F17.5°C 60.2°F15.7°C 89% Calm Calm -- 30.05 in1017.6 mb 0.00 in0.0 mm 0.00 in0.0 mm 0.16 in4.1 mm
12:05 PM 63.5°F17.5°C 60.2°F15.7°C 89% Calm Calm -- 30.04 in1017.3 mb 0.00 in0.0 mm 0.00 in0.0 mm 0.16 in4.1 mm
12:10 PM 63.5°F17.5°C 60.2°F15.7°C 89% Calm Calm -- 30.05 in1017.6 mb 0.00 in0.0 mm 0.00 in0.0 mm 0.16 in4.1 mm
12:15 PM 63.5°F17.5°C 60.2°F15.7°C 89% 0.1 mph NE0.2 kmh NE 0.9 mph1.4 kmh 30.04 in1017.3 mb 0.00 in0.0 mm 0.00 in0.0 mm 0.16 in4.1 mm
12:20 PM 63.5°F17.5°C 60.2°F15.7°C 89% 0.7 mph NE1.1 kmh NE 1.6 mph2.6 kmh 30.04 in1017.3 mb 0.00 in0.0 mm 0.00 in0.0 mm 0.16 in4.1 mm
12:25 PM 63.7°F17.6°C 60.4°F15.8°C 89% 0.6 mph SW1.0 kmh SW 1.6 mph2.6 kmh 30.04 in1017.3 mb 0.00 in0.0 mm 0.00 in0.0 mm 0.16 in4.1 mm
12:30 PM 63.7°F17.6°C 60.4°F15.8°C 89% Calm Calm -- 30.03 in1016.9 mb 0.00 in0.0 mm 0.00 in0.0 mm 0.16 in4.1 mm
12:35 PM 64.0°F17.8°C 60.7°F15.9°C 89% 0.2 mph ESE0.3 kmh ESE 1.1 mph1.8 kmh 30.03 in1016.9 mb 0.00 in0.0 mm 0.00 in0.0 mm 0.16 in4.1 mm
12:40 PM 64.2°F17.9°C 60.9°F16.1°C 89% 0.2 mph ESE0.3 kmh ESE 1.1 mph1.8 kmh 30.03 in1016.9 mb 0.00 in0.0 mm 0.00 in0.0 mm 0.16 in4.1 mm
12:45 PM 64.2°F17.9°C 60.9°F16.1°C 89% Calm Calm -- 30.03 in1016.9 mb 0.00 in0.0 mm 0.00 in0.0 mm 0.16 in4.1 mm
12:50 PM 64.4°F18.0°C 61.1°F16.2°C 89% Calm Calm -- 30.02 in1016.6 mb 0.00 in0.0 mm 0.00 in0.0 mm 0.16 in4.1 mm
12:55 PM 64.2°F17.9°C 60.9°F16.1°C 89% Calm Calm -- 30.03 in1016.9 mb 0.00 in0.0 mm 0.00 in0.0 mm 0.16 in4.1 mm
01:00 PM 64.4°F18.0°C 61.1°F16.2°C 89% 0.3 mph NNE0.5 kmh NNE 1.8 mph2.9 kmh 30.03 in1016.9 mb 0.00 in0.0 mm 0.00 in0.0 mm 0.16 in4.1 mm
01:05 PM 64.4°F18.0°C 61.1°F16.2°C 89% 0.8 mph N1.3 kmh N 1.8 mph2.9 kmh 30.03 in1016.9 mb 0.00 in0.0 mm 0.00 in0.0 mm 0.16 in4.1 mm
01:10 PM 64.2°F17.9°C 60.9°F16.1°C 89% 0.5 mph N0.8 kmh N 1.8 mph2.9 kmh 30.03 in1016.9 mb 0.00 in0.0 mm 0.00 in0.0 mm 0.16 in4.1 mm
01:15 PM 64.2°F17.9°C 60.9°F16.1°C 89% 1.1 mph SW1.8 kmh SW 2.9 mph4.7 kmh 30.03 in1016.9 mb 0.00 in0.0 mm 0.00 in0.0 mm 0.16 in4.1 mm
01:20 PM 64.0°F17.8°C 60.7°F15.9°C 89% 2.1 mph E3.4 kmh E 2.9 mph4.7 kmh 30.02 in1016.6 mb 0.04 in1.0 mm 0.48 in12.2 mm 0.20 in5.1 mm
01:25 PM 64.0°F17.8°C 60.7°F15.9°C 89% 2.0 mph NE3.2 kmh NE 2.9 mph4.7 kmh 30.03 in1016.9 mb 0.04 in1.0 mm 0.00 in0.0 mm 0.20 in5.1 mm
01:30 PM 64.0°F17.8°C 60.7°F15.9°C 89% 1.4 mph NE2.3 kmh NE 2.0 mph3.2 kmh 30.03 in1016.9 mb 0.04 in1.0 mm 0.00 in0.0 mm 0.20 in5.1 mm
01:35 PM 63.7°F17.6°C 60.4°F15.8°C 89% 0.9 mph N1.4 kmh N 4.0 mph6.4 kmh 30.04 in1017.3 mb 0.04 in1.0 mm 0.00 in0.0 mm 0.20 in5.1 mm
01:40 PM 63.7°F17.6°C 60.4°F15.8°C 89% 1.8 mph NW2.9 kmh NW 4.0 mph6.4 kmh 30.04 in1017.3 mb 0.12 in3.0 mm 0.96 in24.4 mm 0.29 in7.4 mm
01:45 PM 63.7°F17.6°C 60.4°F15.8°C 89% 1.5 mph NW2.4 kmh NW 4.0 mph6.4 kmh 30.04 in1017.3 mb 0.19 in4.8 mm 0.84 in21.3 mm 0.35 in8.9 mm
01:50 PM 63.3°F17.4°C 60.0°F15.6°C 89% 0.4 mph NNW0.6 kmh NNW 1.8 mph2.9 kmh 30.04 in1017.3 mb 0.19 in4.8 mm 0.00 in0.0 mm 0.35 in8.9 mm
01:55 PM 63.3°F17.4°C 60.0°F15.6°C 89% 0.9 mph N1.4 kmh N 2.2 mph3.5 kmh 30.04 in1017.3 mb 0.20 in5.1 mm 0.12 in3.0 mm 0.37 in9.4 mm
02:00 PM 63.1°F17.3°C 59.8°F15.4°C 89% 1.5 mph NNE2.4 kmh NNE 2.2 mph3.5 kmh 30.04 in1017.3 mb 0.20 in5.1 mm 0.00 in0.0 mm 0.37 in9.4 mm
02:05 PM 63.1°F17.3°C 59.8°F15.4°C 89% 1.0 mph N1.6 kmh N 2.2 mph3.5 kmh 30.04 in1017.3 mb 0.24 in6.1 mm 0.48 in12.2 mm 0.41 in10.4 mm
02:10 PM 63.1°F17.3°C 59.8°F15.4°C 89% 1.1 mph N1.8 kmh N 1.8 mph2.9 kmh 30.04 in1017.3 mb 0.24 in6.1 mm 0.00 in0.0 mm 0.41 in10.4 mm
02:15 PM 63.0°F17.2°C 59.7°F15.4°C 89% 1.9 mph N3.1 kmh N 2.5 mph4.0 kmh 30.04 in1017.3 mb 0.24 in6.1 mm 0.00 in0.0 mm 0.41 in10.4 mm
02:20 PM 62.8°F17.1°C 59.5°F15.3°C 89% 2.0 mph N3.2 kmh N 2.5 mph4.0 kmh 30.04 in1017.3 mb 0.26 in6.6 mm 0.24 in6.1 mm 0.47 in11.9 mm
02:25 PM 62.8°F17.1°C 59.5°F15.3°C 89% 1.9 mph N3.1 kmh N 2.7 mph4.3 kmh 30.03 in1016.9 mb 0.29 in7.4 mm 0.36 in9.1 mm 0.49 in12.4 mm
02:30 PM 62.8°F17.1°C 59.5°F15.3°C 89% 1.3 mph N2.1 kmh N 2.7 mph4.3 kmh 30.04 in1017.3 mb 0.35 in8.9 mm 0.72 in18.3 mm 0.55 in14.0 mm
02:35 PM 62.6°F17.0°C 59.3°F15.2°C 89% 0.5 mph NNE0.8 kmh NNE 2.7 mph4.3 kmh 30.04 in1017.3 mb 0.35 in8.9 mm 0.00 in0.0 mm 0.55 in14.0 mm
02:40 PM 62.6°F17.0°C 59.3°F15.2°C 89% 0.9 mph N1.4 kmh N 3.4 mph5.5 kmh 30.03 in1016.9 mb 0.26 in6.6 mm 0.00 in0.0 mm 0.55 in14.0 mm
02:45 PM 62.6°F17.0°C 59.3°F15.2°C 89% 0.7 mph N1.1 kmh N 3.4 mph5.5 kmh 30.03 in1016.9 mb 0.24 in6.1 mm 0.00 in0.0 mm 0.59 in15.0 mm
02:50 PM 62.6°F17.0°C 59.3°F15.2°C 89% 0.4 mph N0.6 kmh N 1.8 mph2.9 kmh 30.03 in1016.9 mb 0.24 in6.1 mm 0.00 in0.0 mm 0.59 in15.0 mm
02:55 PM 62.6°F17.0°C 59.3°F15.2°C 89% 1.0 mph N1.6 kmh N 1.8 mph2.9 kmh 30.03 in1016.9 mb 0.22 in5.6 mm 0.00 in0.0 mm 0.59 in15.0 mm
03:00 PM 62.8°F17.1°C 59.5°F15.3°C 89% 1.1 mph N1.8 kmh N 1.8 mph2.9 kmh 30.03 in1016.9 mb 0.22 in5.6 mm 0.00 in0.0 mm 0.59 in15.0 mm
03:05 PM 62.6°F17.0°C 59.3°F15.2°C 89% 0.8 mph NNW1.3 kmh NNW 1.6 mph2.6 kmh 30.04 in1017.3 mb 0.19 in4.8 mm 0.00 in0.0 mm 0.59 in15.0 mm
03:10 PM 62.6°F17.0°C 59.3°F15.2°C 89% 0.3 mph W0.5 kmh W 1.6 mph2.6 kmh 30.04 in1017.3 mb 0.19 in4.8 mm 0.00 in0.0 mm 0.59 in15.0 mm
03:15 PM 62.6°F17.0°C 59.3°F15.2°C 89% Calm Calm -- 30.04 in1017.3 mb 0.16 in4.1 mm 0.00 in0.0 mm 0.59 in15.0 mm
03:20 PM 62.4°F16.9°C 59.1°F15.1°C 89% 0.5 mph WNW0.8 kmh WNW 2.0 mph3.2 kmh 30.04 in1017.3 mb 0.12 in3.0 mm 0.00 in0.0 mm 0.59 in15.0 mm
03:25 PM 62.4°F16.9°C 59.1°F15.1°C 89% 1.3 mph WNW2.1 kmh WNW 2.0 mph3.2 kmh 30.04 in1017.3 mb 0.10 in2.5 mm 0.00 in0.0 mm 0.59 in15.0 mm
03:30 PM 62.2°F16.8°C 59.0°F15.0°C 89% 1.4 mph NW2.3 kmh NW 2.2 mph3.5 kmh 30.04 in1017.3 mb 0.04 in1.0 mm 0.00 in0.0 mm 0.59 in15.0 mm
03:35 PM 62.2°F16.8°C 59.0°F15.0°C 89% 2.3 mph NNE3.7 kmh NNE 3.6 mph5.8 kmh 30.04 in1017.3 mb 0.06 in1.5 mm 0.24 in6.1 mm 0.61 in15.5 mm
03:40 PM 62.2°F16.8°C 59.0°F15.0°C 89% 2.7 mph NNE4.3 kmh NNE 3.6 mph5.8 kmh 30.04 in1017.3 mb 0.06 in1.5 mm 0.00 in0.0 mm 0.61 in15.5 mm
03:45 PM 62.2°F16.8°C 59.0°F15.0°C 89% 2.3 mph NNW3.7 kmh NNW 3.1 mph5.0 kmh 30.04 in1017.3 mb 0.04 in1.0 mm 0.00 in0.0 mm 0.63 in16.0 mm
03:50 PM 61.9°F16.6°C 58.6°F14.8°C 89% 2.0 mph NNW3.2 kmh NNW 3.1 mph5.0 kmh 30.04 in1017.3 mb 0.04 in1.0 mm 0.00 in0.0 mm 0.63 in16.0 mm
03:55 PM 61.9°F16.6°C 58.6°F14.8°C 89% 1.3 mph NW2.1 kmh NW 3.1 mph5.0 kmh 30.04 in1017.3 mb 0.04 in1.0 mm 0.00 in0.0 mm 0.63 in16.0 mm
04:00 PM 61.9°F16.6°C 58.6°F14.8°C 89% 0.8 mph WNW1.3 kmh WNW 1.6 mph2.6 kmh 30.05 in1017.6 mb 0.10 in2.5 mm 0.07 in1.8 mm 0.69 in17.5 mm
04:05 PM 61.9°F16.6°C 58.6°F14.8°C 89% 0.7 mph NNW1.1 kmh NNW 1.6 mph2.6 kmh 30.05 in1017.6 mb 0.10 in2.5 mm 0.00 in0.0 mm 0.69 in17.5 mm
04:10 PM 61.5°F16.4°C 58.6°F14.8°C 90% 1.0 mph N1.6 kmh N 2.0 mph3.2 kmh 30.05 in1017.6 mb 0.10 in2.5 mm 0.00 in0.0 mm 0.69 in17.5 mm
04:15 PM 61.5°F16.4°C 58.6°F14.8°C 90% 1.5 mph NNE2.4 kmh NNE 2.0 mph3.2 kmh 30.05 in1017.6 mb 0.10 in2.5 mm 0.00 in0.0 mm 0.69 in17.5 mm
04:20 PM 61.5°F16.4°C 58.6°F14.8°C 90% 1.3 mph NE2.1 kmh NE 2.0 mph3.2 kmh 30.04 in1017.3 mb 0.12 in3.0 mm 0.24 in6.1 mm 0.71 in18.0 mm
04:25 PM 61.5°F16.4°C 58.2°F14.6°C 89% 0.4 mph NE0.6 kmh NE 1.6 mph2.6 kmh 30.04 in1017.3 mb 0.12 in3.0 mm 0.00 in0.0 mm 0.71 in18.0 mm
04:30 PM 61.5°F16.4°C 58.6°F14.8°C 90% Calm Calm -- 30.05 in1017.6 mb 0.12 in3.0 mm 0.00 in0.0 mm 0.71 in18.0 mm
04:35 PM 61.5°F16.4°C 58.6°F14.8°C 90% Calm Calm -- 30.05 in1017.6 mb 0.19 in4.8 mm 0.84 in21.3 mm 0.80 in20.3 mm
04:40 PM 61.5°F16.4°C 58.6°F14.8°C 90% Calm Calm -- 30.05 in1017.6 mb 0.19 in4.8 mm 0.00 in0.0 mm 0.80 in20.3 mm
04:45 PM 61.5°F16.4°C 58.6°F14.8°C 90% Calm Calm -- 30.05 in1017.6 mb 0.16 in4.1 mm 0.00 in0.0 mm 0.80 in20.3 mm
04:50 PM 61.5°F16.4°C 58.6°F14.8°C 90% 0.8 mph SE1.3 kmh SE 2.5 mph4.0 kmh 30.05 in1017.6 mb 0.16 in4.1 mm 0.00 in0.0 mm 0.80 in20.3 mm
04:55 PM 61.5°F16.4°C 58.6°F14.8°C 90% 1.4 mph SE2.3 kmh SE 2.5 mph4.0 kmh 30.05 in1017.6 mb 0.16 in4.1 mm 0.00 in0.0 mm 0.80 in20.3 mm
05:00 PM 61.5°F16.4°C 58.6°F14.8°C 90% 0.7 mph E1.1 kmh E 2.2 mph3.5 kmh 30.05 in1017.6 mb 0.10 in2.5 mm 0.00 in0.0 mm 0.80 in20.3 mm
05:05 PM 61.5°F16.4°C 58.6°F14.8°C 90% 0.1 mph E0.2 kmh E 1.6 mph2.6 kmh 30.05 in1017.6 mb 0.10 in2.5 mm 0.00 in0.0 mm 0.80 in20.3 mm
05:10 PM 61.5°F16.4°C 58.6°F14.8°C 90% 0.2 mph NNE0.3 kmh NNE 0.9 mph1.4 kmh 30.05 in1017.6 mb 0.10 in2.5 mm 0.00 in0.0 mm 0.80 in20.3 mm
05:15 PM 61.5°F16.4°C 58.6°F14.8°C 90% 0.2 mph NNE0.3 kmh NNE 0.9 mph1.4 kmh 30.05 in1017.6 mb 0.10 in2.5 mm 0.00 in0.0 mm 0.80 in20.3 mm
05:20 PM 61.5°F16.4°C 58.6°F14.8°C 90% 0.1 mph ENE0.2 kmh ENE 1.6 mph2.6 kmh 30.06 in1017.9 mb 0.08 in2.0 mm 0.00 in0.0 mm 0.80 in20.3 mm
05:25 PM 61.5°F16.4°C 58.6°F14.8°C 90% 0.7 mph ENE1.1 kmh ENE 1.6 mph2.6 kmh 30.06 in1017.9 mb 0.08 in2.0 mm 0.00 in0.0 mm 0.80 in20.3 mm
05:30 PM 61.5°F16.4°C 58.6°F14.8°C 90% 1.1 mph NE1.8 kmh NE 2.5 mph4.0 kmh 30.06 in1017.9 mb 0.08 in2.0 mm 0.00 in0.0 mm 0.80 in20.3 mm
05:35 PM 61.5°F16.4°C 58.6°F14.8°C 90% 0.8 mph NE1.3 kmh NE 2.5 mph4.0 kmh 30.07 in1018.3 mb 0.00 in0.0 mm 0.00 in0.0 mm 0.80 in20.3 mm
05:40 PM 61.5°F16.4°C 58.6°F14.8°C 90% 0.3 mph NE0.5 kmh NE 2.5 mph4.0 kmh 30.06 in1017.9 mb 0.00 in0.0 mm 0.00 in0.0 mm 0.80 in20.3 mm
05:45 PM 61.3°F16.3°C 58.4°F14.7°C 90% Calm Calm -- 30.07 in1018.3 mb 0.00 in0.0 mm 0.00 in0.0 mm 0.80 in20.3 mm
05:50 PM 61.3°F16.3°C 58.7°F14.8°C 91% 0.9 mph NE1.4 kmh NE 3.1 mph5.0 kmh 30.06 in1017.9 mb 0.00 in0.0 mm 0.00 in0.0 mm 0.80 in20.3 mm
05:55 PM 61.3°F16.3°C 58.7°F14.8°C 91% 2.2 mph NE3.5 kmh NE 3.1 mph5.0 kmh 30.07 in1018.3 mb 0.00 in0.0 mm 0.00 in0.0 mm 0.80 in20.3 mm
06:00 PM 61.3°F16.3°C 58.7°F14.8°C 91% 3.6 mph NE5.8 kmh NE 8.1 mph13.0 kmh 30.07 in1018.3 mb 0.00 in0.0 mm 0.00 in0.0 mm 0.80 in20.3 mm
06:05 PM 61.2°F16.2°C 58.5°F14.7°C 91% 3.1 mph NE5.0 kmh NE 8.1 mph13.0 kmh 30.07 in1018.3 mb 0.00 in0.0 mm 0.00 in0.0 mm 0.80 in20.3 mm
06:10 PM 60.6°F15.9°C 57.7°F14.3°C 90% 2.6 mph NE4.2 kmh NE 8.1 mph13.0 kmh 30.07 in1018.3 mb 0.00 in0.0 mm 0.00 in0.0 mm 0.80 in20.3 mm
06:15 PM 60.4°F15.8°C 57.5°F14.2°C 90% 4.4 mph NE7.1 kmh NE 5.4 mph8.7 kmh 30.07 in1018.3 mb 0.00 in0.0 mm 0.00 in0.0 mm 0.80 in20.3 mm
06:20 PM 59.9°F15.5°C 57.0°F13.9°C 90% 4.8 mph E7.7 kmh E 5.4 mph8.7 kmh 30.07 in1018.3 mb 0.00 in0.0 mm 0.00 in0.0 mm 0.80 in20.3 mm
06:25 PM 59.5°F15.3°C 56.6°F13.7°C 90% 3.4 mph E5.5 kmh E 5.4 mph8.7 kmh 30.08 in1018.6 mb 0.00 in0.0 mm 0.00 in0.0 mm 0.80 in20.3 mm
06:30 PM 59.5°F15.3°C 56.6°F13.7°C 90% 2.0 mph ENE3.2 kmh ENE 4.3 mph6.9 kmh 30.08 in1018.6 mb 0.00 in0.0 mm 0.00 in0.0 mm 0.80 in20.3 mm
06:35 PM 59.0°F15.0°C 56.1°F13.4°C 90% 1.4 mph E2.3 kmh E 4.3 mph6.9 kmh 30.07 in1018.3 mb 0.00 in0.0 mm 0.00 in0.0 mm 0.80 in20.3 mm
06:40 PM 58.8°F14.9°C 55.9°F13.3°C 90% 0.7 mph ESE1.1 kmh ESE 2.2 mph3.5 kmh 30.07 in1018.3 mb 0.00 in0.0 mm 0.00 in0.0 mm 0.80 in20.3 mm
06:45 PM 58.8°F14.9°C 55.9°F13.3°C 90% 0.5 mph ENE0.8 kmh ENE 2.5 mph4.0 kmh 30.07 in1018.3 mb 0.00 in0.0 mm 0.00 in0.0 mm 0.80 in20.3 mm
06:50 PM 58.3°F14.6°C 55.4°F13.0°C 90% 1.0 mph N1.6 kmh N 2.5 mph4.0 kmh 30.07 in1018.3 mb 0.00 in0.0 mm 0.00 in0.0 mm 0.80 in20.3 mm
06:55 PM 58.3°F14.6°C 55.4°F13.0°C 90% 0.9 mph NNW1.4 kmh NNW 2.5 mph4.0 kmh 30.08 in1018.6 mb 0.00 in0.0 mm 0.00 in0.0 mm 0.80 in20.3 mm
07:00 PM 57.9°F14.4°C 55.0°F12.8°C 90% Calm Calm -- 30.08 in1018.6 mb 0.00 in0.0 mm 0.00 in0.0 mm 0.80 in20.3 mm
07:05 PM 57.7°F14.3°C 54.8°F12.7°C 90% 0.5 mph NE0.8 kmh NE 2.0 mph3.2 kmh 30.08 in1018.6 mb 0.00 in0.0 mm 0.00 in0.0 mm 0.80 in20.3 mm
07:10 PM 57.7°F14.3°C 54.8°F12.7°C 90% 2.0 mph NE3.2 kmh NE 6.5 mph10.5 kmh 30.08 in1018.6 mb 0.00 in0.0 mm 0.00 in0.0 mm 0.80 in20.3 mm
07:15 PM 57.6°F14.2°C 54.6°F12.6°C 90% 3.6 mph SE5.8 kmh SE 6.5 mph10.5 kmh 30.08 in1018.6 mb 0.00 in0.0 mm 0.00 in0.0 mm 0.80 in20.3 mm
07:20 PM 57.4°F14.1°C 54.5°F12.5°C 90% 3.8 mph SE6.1 kmh SE 6.5 mph10.5 kmh 30.08 in1018.6 mb 0.00 in0.0 mm 0.00 in0.0 mm 0.80 in20.3 mm
07:25 PM 57.4°F14.1°C 54.5°F12.5°C 90% 3.9 mph E6.3 kmh E 5.8 mph9.3 kmh 30.08 in1018.6 mb 0.00 in0.0 mm 0.00 in0.0 mm 0.80 in20.3 mm
07:30 PM 57.0°F13.9°C 54.1°F12.3°C 90% 2.9 mph NNE4.7 kmh NNE 5.8 mph9.3 kmh 30.08 in1018.6 mb 0.00 in0.0 mm 0.00 in0.0 mm 0.80 in20.3 mm
07:35 PM 57.0°F13.9°C 54.1°F12.3°C 90% 1.0 mph NNE1.6 kmh NNE 3.8 mph6.1 kmh 30.08 in1018.6 mb 0.00 in0.0 mm 0.00 in0.0 mm 0.80 in20.3 mm
07:40 PM 56.8°F13.8°C 53.9°F12.2°C 90% 0.7 mph NE1.1 kmh NE 1.3 mph2.1 kmh 30.08 in1018.6 mb 0.00 in0.0 mm 0.00 in0.0 mm 0.80 in20.3 mm
07:45 PM 56.8°F13.8°C 53.9°F12.2°C 90% 0.7 mph NE1.1 kmh NE 1.3 mph2.1 kmh 30.08 in1018.6 mb 0.00 in0.0 mm 0.00 in0.0 mm 0.80 in20.3 mm
07:50 PM 56.8°F13.8°C 53.9°F12.2°C 90% 1.0 mph NW1.6 kmh NW 1.8 mph2.9 kmh 30.08 in1018.6 mb 0.00 in0.0 mm 0.00 in0.0 mm 0.80 in20.3 mm
07:55 PM 56.8°F13.8°C 53.9°F12.2°C 90% 0.6 mph NW1.0 kmh NW 1.8 mph2.9 kmh 30.08 in1018.6 mb 0.00 in0.0 mm 0.00 in0.0 mm 0.80 in20.3 mm
08:00 PM 56.7°F13.7°C 53.8°F12.1°C 90% 1.1 mph NW1.8 kmh NW 3.1 mph5.0 kmh 30.08 in1018.6 mb 0.00 in0.0 mm 0.00 in0.0 mm 0.80 in20.3 mm
08:05 PM 56.5°F13.6°C 53.6°F12.0°C 90% 1.4 mph NNW2.3 kmh NNW 4.3 mph6.9 kmh 30.08 in1018.6 mb 0.00 in0.0 mm 0.00 in0.0 mm 0.80 in20.3 mm
08:10 PM 56.5°F13.6°C 53.6°F12.0°C 90% 1.5 mph ENE2.4 kmh ENE 4.3 mph6.9 kmh 30.09 in1019.0 mb 0.00 in0.0 mm 0.00 in0.0 mm 0.80 in20.3 mm
08:15 PM 56.5°F13.6°C 53.6°F12.0°C 90% 2.5 mph ENE4.0 kmh ENE 4.3 mph6.9 kmh 30.09 in1019.0 mb 0.00 in0.0 mm 0.00 in0.0 mm 0.80 in20.3 mm
08:20 PM 56.3°F13.5°C 53.7°F12.1°C 91% 1.2 mph ENE1.9 kmh ENE 3.6 mph5.8 kmh 30.09 in1019.0 mb 0.00 in0.0 mm 0.00 in0.0 mm 0.80 in20.3 mm
08:25 PM 56.3°F13.5°C 53.7°F12.1°C 91% 1.4 mph E2.3 kmh E 4.3 mph6.9 kmh 30.09 in1019.0 mb 0.00 in0.0 mm 0.00 in0.0 mm 0.80 in20.3 mm
08:30 PM 56.3°F13.5°C 53.7°F12.1°C 91% 2.8 mph NNE4.5 kmh NNE 4.3 mph6.9 kmh 30.08 in1018.6 mb 0.00 in0.0 mm 0.00 in0.0 mm 0.80 in20.3 mm
08:35 PM 56.3°F13.5°C 53.7°F12.1°C 91% 2.8 mph N4.5 kmh N 4.3 mph6.9 kmh 30.08 in1018.6 mb 0.00 in0.0 mm 0.00 in0.0 mm 0.80 in20.3 mm
08:40 PM 56.1°F13.4°C 53.5°F11.9°C 91% 1.3 mph ESE2.1 kmh ESE 3.8 mph6.1 kmh 30.08 in1018.6 mb 0.00 in0.0 mm 0.00 in0.0 mm 0.80 in20.3 mm
08:45 PM 56.1°F13.4°C 53.5°F11.9°C 91% Calm Calm -- 30.08 in1018.6 mb 0.00 in0.0 mm 0.00 in0.0 mm 0.80 in20.3 mm
08:50 PM 56.1°F13.4°C 53.5°F11.9°C 91% Calm Calm -- 30.08 in1018.6 mb 0.00 in0.0 mm 0.00 in0.0 mm 0.80 in20.3 mm
08:55 PM 56.1°F13.4°C 53.5°F11.9°C 91% 0.1 mph NE0.2 kmh NE 1.1 mph1.8 kmh 30.09 in1019.0 mb 0.00 in0.0 mm 0.00 in0.0 mm 0.80 in20.3 mm
09:00 PM 56.1°F13.4°C 53.5°F11.9°C 91% 0.7 mph NE1.1 kmh NE 1.1 mph1.8 kmh 30.09 in1019.0 mb 0.00 in0.0 mm 0.00 in0.0 mm 0.80 in20.3 mm
09:05 PM 55.9°F13.3°C 53.4°F11.9°C 91% 0.8 mph NE1.3 kmh NE 1.1 mph1.8 kmh 30.09 in1019.0 mb 0.00 in0.0 mm 0.00 in0.0 mm 0.80 in20.3 mm
09:10 PM 55.9°F13.3°C 53.4°F11.9°C 91% 0.3 mph NE0.5 kmh NE 1.1 mph1.8 kmh 30.09 in1019.0 mb 0.00 in0.0 mm 0.00 in0.0 mm 0.80 in20.3 mm
09:15 PM 55.9°F13.3°C 53.4°F11.9°C 91% 1.0 mph ESE1.6 kmh ESE 2.5 mph4.0 kmh 30.09 in1019.0 mb 0.00 in0.0 mm 0.00 in0.0 mm 0.80 in20.3 mm
09:20 PM 55.9°F13.3°C 53.4°F11.9°C 91% 1.2 mph ESE1.9 kmh ESE 2.5 mph4.0 kmh 30.09 in1019.0 mb 0.00 in0.0 mm 0.00 in0.0 mm 0.80 in20.3 mm
09:25 PM 55.9°F13.3°C 53.4°F11.9°C 91% 0.2 mph SE0.3 kmh SE 2.5 mph4.0 kmh 30.09 in1019.0 mb 0.00 in0.0 mm 0.00 in0.0 mm 0.80 in20.3 mm
09:30 PM 55.9°F13.3°C 53.4°F11.9°C 91% Calm Calm -- 30.09 in1019.0 mb 0.00 in0.0 mm 0.00 in0.0 mm 0.80 in20.3 mm
09:35 PM 55.8°F13.2°C 53.2°F11.8°C 91% Calm Calm -- 30.09 in1019.0 mb 0.00 in0.0 mm 0.00 in0.0 mm 0.80 in20.3 mm
09:40 PM 55.8°F13.2°C 53.2°F11.8°C 91% 0.2 mph N0.3 kmh N 1.6 mph2.6 kmh 30.09 in1019.0 mb 0.00 in0.0 mm 0.00 in0.0 mm 0.80 in20.3 mm
09:45 PM 55.8°F13.2°C 53.2°F11.8°C 91% 0.9 mph NNE1.4 kmh NNE 1.6 mph2.6 kmh 30.09 in1019.0 mb 0.00 in0.0 mm 0.00 in0.0 mm 0.80 in20.3 mm
09:50 PM 55.8°F13.2°C 52.9°F11.6°C 90% 0.8 mph NNE1.3 kmh NNE 1.6 mph2.6 kmh 30.09 in1019.0 mb 0.00 in0.0 mm 0.00 in0.0 mm 0.80 in20.3 mm
09:55 PM 55.8°F13.2°C 52.9°F11.6°C 90% 0.3 mph N0.5 kmh N 1.6 mph2.6 kmh 30.09 in1019.0 mb 0.00 in0.0 mm 0.00 in0.0 mm 0.80 in20.3 mm
10:00 PM 55.8°F13.2°C 52.9°F11.6°C 90% 0.2 mph N0.3 kmh N 1.6 mph2.6 kmh 30.09 in1019.0 mb 0.00 in0.0 mm 0.00 in0.0 mm 0.80 in20.3 mm
10:05 PM 55.8°F13.2°C 52.9°F11.6°C 90% 0.2 mph N0.3 kmh N 0.9 mph1.4 kmh 30.08 in1018.6 mb 0.00 in0.0 mm 0.00 in0.0 mm 0.80 in20.3 mm
10:10 PM 55.8°F13.2°C 52.9°F11.6°C 90% 0.8 mph N1.3 kmh N 2.0 mph3.2 kmh 30.09 in1019.0 mb 0.00 in0.0 mm 0.00 in0.0 mm 0.80 in20.3 mm
10:15 PM 55.8°F13.2°C 52.9°F11.6°C 90% 1.7 mph N2.7 kmh N 3.8 mph6.1 kmh 30.09 in1019.0 mb 0.00 in0.0 mm 0.00 in0.0 mm 0.80 in20.3 mm
10:20 PM 55.6°F13.1°C 52.7°F11.5°C 90% 2.5 mph NNE4.0 kmh NNE 3.8 mph6.1 kmh 30.09 in1019.0 mb 0.00 in0.0 mm 0.00 in0.0 mm 0.80 in20.3 mm
10:25 PM 55.6°F13.1°C 52.7°F11.5°C 90% 2.7 mph NNE4.3 kmh NNE 3.8 mph6.1 kmh 30.09 in1019.0 mb 0.00 in0.0 mm 0.00 in0.0 mm 0.80 in20.3 mm
10:30 PM 55.6°F13.1°C 52.7°F11.5°C 90% 2.9 mph N4.7 kmh N 3.1 mph5.0 kmh 30.09 in1019.0 mb 0.00 in0.0 mm 0.00 in0.0 mm 0.80 in20.3 mm
10:35 PM 55.6°F13.1°C 52.7°F11.5°C 90% 2.1 mph N3.4 kmh N 3.1 mph5.0 kmh 30.09 in1019.0 mb 0.00 in0.0 mm 0.00 in0.0 mm 0.80 in20.3 mm
10:40 PM 55.4°F13.0°C 52.5°F11.4°C 90% 1.5 mph NNE2.4 kmh NNE 3.1 mph5.0 kmh 30.09 in1019.0 mb 0.00 in0.0 mm 0.00 in0.0 mm 0.80 in20.3 mm
10:45 PM 55.6°F13.1°C 53.0°F11.7°C 91% 2.1 mph N3.4 kmh N 2.2 mph3.5 kmh 30.08 in1018.6 mb 0.00 in0.0 mm 0.00 in0.0 mm 0.80 in20.3 mm
10:50 PM 55.4°F13.0°C 52.8°F11.6°C 91% 2.3 mph N3.7 kmh N 2.9 mph4.7 kmh 30.08 in1018.6 mb 0.00 in0.0 mm 0.00 in0.0 mm 0.80 in20.3 mm
10:55 PM 55.4°F13.0°C 52.8°F11.6°C 91% 1.9 mph N3.1 kmh N 2.9 mph4.7 kmh 30.08 in1018.6 mb 0.00 in0.0 mm 0.00 in0.0 mm 0.80 in20.3 mm
11:00 PM 55.4°F13.0°C 52.5°F11.4°C 90% 2.3 mph NNE3.7 kmh NNE 3.6 mph5.8 kmh 30.08 in1018.6 mb 0.00 in0.0 mm 0.00 in0.0 mm 0.68 in17.3 mm
11:05 PM 55.4°F13.0°C 52.8°F11.6°C 91% 2.5 mph NE4.0 kmh NE 3.6 mph5.8 kmh 30.08 in1018.6 mb 0.00 in0.0 mm 0.00 in0.0 mm 0.68 in17.3 mm
11:10 PM 55.4°F13.0°C 52.5°F11.4°C 90% 2.4 mph NE3.9 kmh NE 3.6 mph5.8 kmh 30.09 in1019.0 mb 0.00 in0.0 mm 0.00 in0.0 mm 0.68 in17.3 mm
11:15 PM 55.4°F13.0°C 52.5°F11.4°C 90% 2.4 mph NNE3.9 kmh NNE 3.4 mph5.5 kmh 30.09 in1019.0 mb 0.00 in0.0 mm 0.00 in0.0 mm 0.68 in17.3 mm
11:20 PM 55.4°F13.0°C 52.8°F11.6°C 91% 1.7 mph NNE2.7 kmh NNE 2.2 mph3.5 kmh 30.09 in1019.0 mb 0.00 in0.0 mm 0.00 in0.0 mm 0.68 in17.3 mm
11:25 PM 55.4°F13.0°C 52.5°F11.4°C 90% 2.0 mph NE3.2 kmh NE 2.5 mph4.0 kmh 30.09 in1019.0 mb 0.00 in0.0 mm 0.00 in0.0 mm 0.68 in17.3 mm
11:30 PM 55.4°F13.0°C 52.5°F11.4°C 90% 1.6 mph ENE2.6 kmh ENE 2.5 mph4.0 kmh 30.08 in1018.6 mb 0.00 in0.0 mm 0.00 in0.0 mm 0.68 in17.3 mm
11:35 PM 55.4°F13.0°C 52.5°F11.4°C 90% 1.1 mph NE1.8 kmh NE 2.5 mph4.0 kmh 30.08 in1018.6 mb 0.00 in0.0 mm 0.00 in0.0 mm 0.68 in17.3 mm
11:40 PM 55.4°F13.0°C 52.5°F11.4°C 90% 1.0 mph NE1.6 kmh NE 1.6 mph2.6 kmh 30.08 in1018.6 mb 0.00 in0.0 mm 0.00 in0.0 mm 0.68 in17.3 mm
11:45 PM 55.4°F13.0°C 52.5°F11.4°C 90% 1.3 mph NE2.1 kmh NE 2.2 mph3.5 kmh 30.09 in1019.0 mb 0.00 in0.0 mm 0.00 in0.0 mm 0.68 in17.3 mm
11:50 PM 55.4°F13.0°C 52.5°F11.4°C 90% 1.5 mph NNE2.4 kmh NNE 2.2 mph3.5 kmh 30.09 in1019.0 mb 0.00 in0.0 mm 0.00 in0.0 mm 0.68 in17.3 mm
11:55 PM 55.4°F13.0°C 52.5°F11.4°C 90% 1.1 mph NE1.8 kmh NE 2.2 mph3.5 kmh 30.09 in1019.0 mb 0.00 in0.0 mm 0.00 in0.0 mm 0.68 in17.3 mm